createdAt,value
2018-10-01T00:00:00.681Z,7.80
2018-10-01T00:02:29.099Z,7.70
2018-10-01T00:04:57.549Z,7.80
2018-10-01T00:07:26.014Z,7.90
2018-10-01T00:09:54.421Z,7.80
2018-10-01T00:12:22.882Z,7.80
2018-10-01T00:14:51.341Z,7.80
2018-10-01T00:17:19.922Z,7.70
2018-10-01T00:20:06.254Z,7.60
2018-10-01T00:22:39.970Z,7.50
2018-10-01T00:25:08.419Z,7.40
2018-10-01T00:27:36.886Z,7.50
2018-10-01T00:30:05.343Z,7.50
2018-10-01T00:32:33.811Z,7.50
2018-10-01T00:35:02.259Z,7.50
2018-10-01T00:37:30.719Z,7.50
2018-10-01T00:39:59.133Z,7.40
2018-10-01T00:42:27.606Z,7.40
2018-10-01T00:44:56.022Z,7.40
2018-10-01T00:47:24.468Z,7.50
2018-10-01T00:49:52.887Z,7.40
2018-10-01T00:52:21.341Z,7.30
2018-10-01T00:54:49.778Z,7.20
2018-10-01T00:57:18.238Z,7.20
2018-10-01T00:59:46.654Z,7.20
2018-10-01T01:02:15.110Z,7.30
2018-10-01T01:04:43.561Z,7.30
2018-10-01T01:07:12.009Z,7.20
2018-10-01T01:09:40.428Z,7.20
2018-10-01T01:12:09.047Z,7.20
2018-10-01T01:14:37.847Z,7.20
2018-10-01T01:17:06.490Z,7.20
2018-10-01T01:19:34.942Z,7.20
2018-10-01T01:22:03.403Z,7.20
2018-10-01T01:24:31.826Z,7.20
2018-10-01T01:27:00.284Z,7.30
2018-10-01T01:29:28.699Z,7.30
2018-10-01T01:31:57.146Z,7.20
2018-10-01T01:34:25.657Z,7.30
2018-10-01T01:36:54.103Z,7.30
2018-10-01T01:39:22.529Z,7.20
2018-10-01T01:41:50.952Z,7.10
2018-10-01T01:44:19.378Z,7.10
2018-10-01T01:46:47.822Z,7.20
2018-10-01T01:49:16.274Z,7.20
2018-10-01T01:51:44.676Z,7.20
2018-10-01T01:54:13.150Z,7.20
2018-10-01T01:56:41.594Z,7.30
2018-10-01T01:59:10.030Z,7.30
2018-10-01T02:01:38.455Z,7.30
2018-10-01T02:04:06.982Z,7.20
2018-10-01T02:06:35.413Z,7.10
2018-10-01T02:09:04.824Z,7.10
2018-10-01T02:11:33.238Z,7.00
2018-10-01T02:14:01.686Z,7.00
2018-10-01T02:16:30.114Z,7.00
2018-10-01T02:18:58.590Z,7.10
2018-10-01T02:21:27.074Z,7.10
2018-10-01T02:23:55.593Z,7.10
2018-10-01T02:26:24.043Z,7.10
2018-10-01T02:28:52.518Z,7.10
2018-10-01T02:31:20.938Z,7.10
2018-10-01T02:33:49.441Z,7.10
2018-10-01T02:36:17.889Z,7.10
2018-10-01T02:38:46.360Z,7.10
2018-10-01T02:41:14.807Z,7.10
2018-10-01T02:43:43.281Z,7.20
2018-10-01T02:46:11.703Z,7.10
2018-10-01T02:48:40.146Z,7.10
2018-10-01T02:51:08.598Z,7.10
2018-10-01T02:53:42.422Z,7.10
2018-10-01T02:56:10.859Z,7.10
2018-10-01T02:58:39.306Z,7.20
2018-10-01T03:01:07.766Z,7.20
2018-10-01T03:03:36.217Z,7.20
2018-10-01T03:06:04.665Z,7.10
2018-10-01T03:08:33.110Z,7.20
2018-10-01T03:11:01.562Z,7.10
2018-10-01T03:13:30.018Z,7.10
2018-10-01T03:15:58.466Z,7.10
2018-10-01T03:18:26.935Z,7.00
2018-10-01T03:20:55.394Z,7.10
2018-10-01T03:23:23.862Z,7.10
2018-10-01T03:25:52.314Z,7.20
2018-10-01T03:28:20.786Z,7.30
2018-10-01T03:30:49.218Z,7.30
2018-10-01T03:33:17.673Z,7.30
2018-10-01T03:35:46.130Z,7.30
2018-10-01T03:38:14.570Z,7.30
2018-10-01T03:40:43.018Z,7.30
2018-10-01T03:43:12.291Z,7.30
2018-10-01T03:45:40.754Z,7.30
2018-10-01T03:48:09.204Z,7.40
2018-10-01T03:50:37.671Z,7.40
2018-10-01T03:53:06.110Z,7.40
2018-10-01T03:55:34.570Z,7.40
2018-10-01T03:58:03.001Z,7.40
2018-10-01T04:00:31.459Z,7.50
2018-10-01T04:02:59.957Z,7.40
2018-10-01T04:05:28.395Z,7.40
2018-10-01T04:07:56.830Z,7.40
2018-10-01T04:10:25.293Z,7.30
2018-10-01T04:12:53.737Z,7.40
2018-10-01T04:15:22.175Z,7.30
2018-10-01T04:17:50.609Z,7.30
2018-10-01T04:20:19.095Z,7.30
2018-10-01T04:22:47.577Z,7.20
2018-10-01T04:25:16.003Z,7.20
2018-10-01T04:27:44.437Z,7.20
2018-10-01T04:30:12.991Z,7.20
2018-10-01T04:32:41.458Z,7.10
2018-10-01T04:35:09.950Z,7.10
2018-10-01T04:37:38.383Z,7.10
2018-10-01T04:40:06.935Z,7.20
2018-10-01T04:42:35.497Z,7.10
2018-10-01T04:45:04.034Z,7.10
2018-10-01T04:47:32.485Z,7.10
2018-10-01T04:50:00.978Z,7.10
2018-10-01T04:52:29.439Z,7.20
2018-10-01T04:54:57.897Z,7.20
2018-10-01T04:57:26.339Z,7.30
2018-10-01T04:59:54.815Z,7.30
2018-10-01T05:02:23.262Z,7.30
2018-10-01T05:04:51.714Z,7.40
2018-10-01T05:07:20.159Z,7.40
2018-10-01T05:09:48.611Z,7.30
2018-10-01T05:12:17.041Z,7.30
2018-10-01T05:14:46.136Z,7.30
2018-10-01T05:17:14.867Z,7.30
2018-10-01T05:19:43.347Z,7.30
2018-10-01T05:22:11.822Z,7.30
2018-10-01T05:24:40.319Z,7.20
2018-10-01T05:27:08.775Z,7.20
2018-10-01T05:29:37.229Z,7.10
2018-10-01T05:32:05.686Z,7.20
2018-10-01T05:34:34.139Z,7.20
2018-10-01T05:37:02.594Z,7.30
2018-10-01T05:39:31.030Z,7.30
2018-10-01T05:41:59.486Z,7.40
2018-10-01T05:44:28.221Z,7.40
2018-10-01T05:46:56.722Z,7.40
2018-10-01T05:49:25.167Z,7.40
2018-10-01T05:51:53.626Z,7.40
2018-10-01T05:54:22.050Z,7.40
2018-10-01T05:56:50.532Z,7.50
2018-10-01T05:59:18.985Z,7.50
2018-10-01T06:01:47.478Z,7.50
2018-10-01T06:04:15.903Z,7.60
2018-10-01T06:06:44.362Z,7.70
2018-10-01T06:09:13.250Z,7.80
2018-10-01T06:11:42.083Z,7.90
2018-10-01T06:14:10.574Z,8.10
2018-10-01T06:16:39.040Z,8.10
2018-10-01T06:19:07.687Z,8.30
2018-10-01T06:21:36.142Z,8.30
2018-10-01T06:24:04.587Z,8.30
2018-10-01T06:26:33.068Z,8.50
2018-10-01T06:29:01.517Z,8.50
2018-10-01T06:31:30.007Z,8.60
2018-10-01T06:33:58.503Z,8.70
2018-10-01T06:36:26.972Z,8.70
2018-10-01T06:38:55.417Z,8.70
2018-10-01T06:41:24.047Z,8.80
2018-10-01T06:43:52.476Z,8.80
2018-10-01T06:46:20.951Z,8.90
2018-10-01T06:48:49.405Z,8.90
2018-10-01T06:51:17.885Z,9.00
2018-10-01T06:53:46.373Z,9.10
2018-10-01T06:56:14.870Z,9.10
2018-10-01T06:58:43.366Z,9.20
2018-10-01T07:01:11.893Z,9.20
2018-10-01T07:03:40.266Z,9.30
2018-10-01T07:06:08.731Z,9.30
2018-10-01T07:08:37.213Z,9.40
2018-10-01T07:11:05.749Z,9.40
2018-10-01T07:13:34.190Z,9.40
2018-10-01T07:16:02.649Z,9.60
2018-10-01T07:18:31.066Z,9.60
2018-10-01T07:20:59.558Z,9.70
2018-10-01T07:23:28.201Z,9.90
2018-10-01T07:25:56.558Z,9.90
2018-10-01T07:28:24.995Z,9.90
2018-10-01T07:30:53.499Z,10.00
2018-10-01T07:33:21.925Z,10.10
2018-10-01T07:35:50.404Z,10.20
2018-10-01T07:38:18.834Z,10.30
2018-10-01T07:40:47.326Z,10.30
2018-10-01T07:43:15.798Z,9.70
2018-10-01T07:45:44.273Z,9.70
2018-10-01T07:48:12.759Z,9.60
2018-10-01T07:50:41.255Z,9.40
2018-10-01T07:53:09.674Z,9.50
2018-10-01T07:55:38.125Z,9.50
2018-10-01T07:58:06.603Z,9.60
2018-10-01T08:00:35.041Z,9.60
2018-10-01T08:03:03.518Z,9.70
2018-10-01T08:05:32.230Z,9.80
2018-10-01T08:08:00.693Z,9.90
2018-10-01T08:10:29.141Z,9.90
2018-10-01T08:12:57.635Z,10.10
2018-10-01T08:15:26.118Z,10.00
2018-10-01T08:17:54.629Z,10.30
2018-10-01T08:20:23.307Z,10.40
2018-10-01T08:22:51.746Z,10.60
2018-10-01T08:25:20.177Z,10.70
2018-10-01T08:27:48.662Z,10.80
2018-10-01T08:30:17.106Z,11.00
2018-10-01T08:32:45.602Z,11.00
2018-10-01T08:35:14.113Z,11.00
2018-10-01T08:37:42.486Z,11.00
2018-10-01T08:40:10.950Z,11.10
2018-10-01T08:42:39.387Z,11.20
2018-10-01T08:45:07.846Z,11.20
2018-10-01T08:47:36.352Z,11.40
2018-10-01T08:50:07.953Z,11.40
2018-10-01T08:52:43.901Z,11.40
2018-10-01T08:55:12.363Z,11.50
2018-10-01T08:57:40.780Z,11.60
2018-10-01T09:00:09.266Z,11.80
2018-10-01T09:02:37.745Z,12.10
2018-10-01T09:05:06.181Z,12.20
2018-10-01T09:07:34.602Z,12.30
2018-10-01T09:10:03.014Z,12.70
2018-10-01T09:12:31.449Z,13.30
2018-10-01T09:14:59.898Z,13.40
2018-10-01T09:17:28.312Z,13.50
2018-10-01T09:19:56.693Z,13.50
2018-10-01T09:22:25.130Z,13.60
2018-10-01T09:24:53.543Z,13.80
2018-10-01T09:27:21.997Z,13.90
2018-10-01T09:29:50.444Z,14.00
2018-10-01T09:32:18.839Z,14.00
2018-10-01T09:34:47.303Z,14.00
2018-10-01T09:37:15.722Z,14.10
2018-10-01T09:39:44.158Z,14.30
2018-10-01T09:42:12.645Z,14.20
2018-10-01T09:44:41.023Z,14.60
2018-10-01T09:47:09.439Z,14.60
2018-10-01T09:49:37.912Z,14.30
2018-10-01T09:52:06.384Z,14.40
2018-10-01T09:54:34.773Z,14.60
2018-10-01T09:57:03.190Z,14.20
2018-10-01T09:59:31.618Z,14.40
2018-10-01T10:02:00.051Z,15.10
2018-10-01T10:04:28.653Z,15.10
2018-10-01T10:06:56.995Z,14.80
2018-10-01T10:09:25.434Z,14.40
2018-10-01T10:11:53.855Z,15.10
2018-10-01T10:14:22.331Z,16.50
2018-10-01T10:16:50.882Z,16.50
2018-10-01T10:19:19.301Z,17.40
2018-10-01T10:21:47.701Z,17.40
2018-10-01T10:24:16.125Z,17.00
2018-10-01T10:26:44.562Z,17.40
2018-10-01T10:29:12.989Z,16.60
2018-10-01T10:31:41.546Z,16.00
2018-10-01T10:34:10.014Z,15.60
2018-10-01T10:36:38.417Z,15.30
2018-10-01T10:39:09.606Z,15.40
2018-10-01T10:41:38.043Z,15.20
2018-10-01T10:44:06.619Z,14.90
2018-10-01T10:46:34.951Z,15.00
2018-10-01T10:49:03.375Z,15.20
2018-10-01T10:51:31.765Z,15.00
2018-10-01T10:54:00.184Z,14.60
2018-10-01T10:56:28.585Z,14.10
2018-10-01T10:58:57.009Z,14.10
2018-10-01T11:01:25.425Z,14.00
2018-10-01T11:03:53.855Z,14.10
2018-10-01T11:06:22.262Z,14.70
2018-10-01T11:08:50.719Z,15.70
2018-10-01T11:11:19.114Z,16.10
2018-10-01T11:13:47.581Z,16.00
2018-10-01T11:16:16.162Z,17.80
2018-10-01T11:18:44.735Z,17.00
2018-10-01T11:21:13.065Z,16.30
2018-10-01T11:23:41.482Z,16.20
2018-10-01T11:26:09.889Z,15.40
2018-10-01T11:28:38.617Z,15.20
2018-10-01T11:31:07.018Z,14.80
2018-10-01T11:33:35.448Z,15.20
2018-10-01T11:36:03.891Z,15.10
2018-10-01T11:38:32.313Z,15.10
2018-10-01T11:41:00.773Z,16.50
2018-10-01T11:43:29.225Z,16.20
2018-10-01T11:45:57.712Z,15.60
2018-10-01T11:48:26.109Z,15.60
2018-10-01T11:50:54.577Z,16.80
2018-10-01T11:53:22.999Z,18.20
2018-10-01T11:55:51.406Z,18.70
2018-10-01T11:58:19.829Z,18.50
2018-10-01T12:00:48.238Z,17.90
2018-10-01T12:03:16.754Z,17.40
2018-10-01T12:05:45.056Z,16.80
2018-10-01T12:08:13.443Z,16.70
2018-10-01T12:10:41.958Z,16.20
2018-10-01T12:13:10.341Z,16.10
2018-10-01T12:15:38.850Z,16.00
2018-10-01T12:18:07.169Z,16.60
2018-10-01T12:20:35.637Z,18.50
2018-10-01T12:23:04.055Z,16.80
2018-10-01T12:25:32.493Z,16.70
2018-10-01T12:28:00.901Z,17.40
2018-10-01T12:30:29.338Z,18.60
2018-10-01T12:32:57.761Z,18.30
2018-10-01T12:35:26.214Z,17.40
2018-10-01T12:37:54.609Z,17.50
2018-10-01T12:40:23.069Z,17.40
2018-10-01T12:42:51.565Z,17.70
2018-10-01T12:45:20.122Z,17.80
2018-10-01T12:47:48.403Z,16.90
2018-10-01T12:50:16.892Z,17.30
2018-10-01T12:52:45.245Z,18.80
2018-10-01T12:55:13.690Z,19.80
2018-10-01T12:57:42.204Z,21.10
2018-10-01T13:00:10.590Z,21.40
2018-10-01T13:02:39.101Z,21.70
2018-10-01T13:05:07.658Z,21.30
2018-10-01T13:07:35.985Z,20.20
2018-10-01T13:10:04.718Z,18.80
2018-10-01T13:12:33.131Z,18.70
2018-10-01T13:15:01.556Z,18.00
2018-10-01T13:17:29.981Z,17.50
2018-10-01T13:19:58.450Z,19.20
2018-10-01T13:22:26.872Z,20.10
2018-10-01T13:24:55.391Z,20.50
2018-10-01T13:27:23.822Z,18.70
2018-10-01T13:29:52.270Z,20.90
2018-10-01T13:32:20.701Z,21.30
2018-10-01T13:34:49.136Z,23.50
2018-10-01T13:37:17.557Z,26.20
2018-10-01T13:39:46.009Z,24.00
2018-10-01T13:42:14.440Z,23.80
2018-10-01T13:44:42.879Z,25.00
2018-10-01T13:47:11.309Z,24.90
2018-10-01T13:49:39.713Z,24.60
2018-10-01T13:52:08.193Z,25.70
2018-10-01T13:54:36.643Z,23.10
2018-10-01T13:57:05.037Z,19.10
2018-10-01T13:59:33.469Z,18.20
2018-10-01T14:02:01.977Z,17.80
2018-10-01T14:04:30.394Z,17.60
2018-10-01T14:06:58.997Z,17.40
2018-10-01T14:09:33.573Z,17.20
2018-10-01T14:12:02.238Z,16.90
2018-10-01T14:14:30.665Z,16.60
2018-10-01T14:16:59.483Z,16.60
2018-10-01T14:19:28.080Z,16.80
2018-10-01T14:21:56.422Z,17.50
2018-10-01T14:24:24.846Z,18.70
2018-10-01T14:26:53.299Z,19.00
2018-10-01T14:29:21.755Z,17.60
2018-10-01T14:31:50.194Z,16.60
2018-10-01T14:34:18.618Z,16.40
2018-10-01T14:36:47.060Z,16.10
2018-10-01T14:39:15.502Z,15.60
2018-10-01T14:41:43.949Z,15.70
2018-10-01T14:44:12.350Z,15.60
2018-10-01T14:46:40.781Z,15.30
2018-10-01T14:49:09.201Z,15.20
2018-10-01T14:51:37.666Z,15.10
2018-10-01T14:54:06.147Z,15.10
2018-10-01T14:56:34.564Z,14.90
2018-10-01T14:59:02.978Z,14.70
2018-10-01T15:01:31.398Z,14.60
2018-10-01T15:03:59.805Z,14.60
2018-10-01T15:06:28.268Z,14.50
2018-10-01T15:08:56.673Z,14.40
2018-10-01T15:11:25.135Z,14.30
2018-10-01T15:13:53.542Z,14.10
2018-10-01T15:16:22.017Z,14.10
2018-10-01T15:18:50.404Z,14.20
2018-10-01T15:21:18.853Z,14.20
2018-10-01T15:23:47.265Z,14.00
2018-10-01T15:26:15.701Z,13.80
2018-10-01T15:28:44.129Z,13.70
2018-10-01T15:31:12.554Z,13.60
2018-10-01T15:33:40.998Z,13.20
2018-10-01T15:36:09.473Z,12.70
2018-10-01T15:38:37.884Z,12.20
2018-10-01T15:41:06.430Z,11.80
2018-10-01T15:43:34.873Z,11.60
2018-10-01T15:46:03.341Z,11.50
2018-10-01T15:48:31.917Z,11.40
2018-10-01T15:51:00.297Z,11.30
2018-10-01T15:53:28.765Z,11.30
2018-10-01T15:55:57.317Z,11.30
2018-10-01T15:58:25.714Z,11.30
2018-10-01T16:00:54.134Z,11.20
2018-10-01T16:03:22.608Z,11.20
2018-10-01T16:05:51.001Z,11.20
2018-10-01T16:08:19.441Z,11.10
2018-10-01T16:10:47.853Z,11.10
2018-10-01T16:13:16.287Z,11.10
2018-10-01T16:15:44.706Z,11.00
2018-10-01T16:18:13.215Z,11.00
2018-10-01T16:20:41.590Z,11.00
2018-10-01T16:23:10.087Z,10.90
2018-10-01T16:25:38.570Z,11.00
2018-10-01T16:28:06.954Z,11.10
2018-10-01T16:30:35.362Z,11.00
2018-10-01T16:33:03.831Z,10.90
2018-10-01T16:35:32.233Z,10.70
2018-10-01T16:38:00.710Z,10.40
2018-10-01T16:40:29.141Z,10.20
2018-10-01T16:42:57.573Z,10.00
2018-10-01T16:45:26.014Z,9.80
2018-10-01T16:47:54.555Z,9.80
2018-10-01T16:50:22.966Z,9.80
2018-10-01T16:52:51.393Z,9.80
2018-10-01T16:55:19.822Z,9.80
2018-10-01T16:57:48.285Z,9.70
2018-10-01T17:00:16.690Z,9.70
2018-10-01T17:02:45.148Z,9.70
2018-10-01T17:05:13.687Z,9.70
2018-10-01T17:07:42.126Z,9.70
2018-10-01T17:10:10.519Z,9.70
2018-10-01T17:12:38.917Z,9.70
2018-10-01T17:15:07.384Z,9.90
2018-10-01T17:17:35.817Z,9.90
2018-10-01T17:20:09.777Z,9.90
2018-10-01T17:22:38.169Z,9.80
2018-10-01T17:25:06.779Z,9.70
2018-10-01T17:27:35.181Z,9.60
2018-10-01T17:30:03.815Z,9.50
2018-10-01T17:32:32.186Z,9.40
2018-10-01T17:35:00.631Z,9.30
2018-10-01T17:37:29.093Z,9.30
2018-10-01T17:39:57.554Z,9.30
2018-10-01T17:42:25.941Z,9.20
2018-10-01T17:44:54.449Z,9.10
2018-10-01T17:47:22.910Z,8.90
2018-10-01T17:49:51.353Z,8.80
2018-10-01T17:52:19.827Z,8.80
2018-10-01T17:54:48.278Z,8.80
2018-10-01T17:57:16.734Z,8.80
2018-10-01T17:59:45.340Z,8.70
2018-10-01T18:02:13.735Z,8.80
2018-10-01T18:04:42.194Z,8.70
2018-10-01T18:07:10.630Z,8.70
2018-10-01T18:09:39.100Z,8.80
2018-10-01T18:12:07.667Z,8.80
2018-10-01T18:14:36.098Z,8.90
2018-10-01T18:17:04.522Z,9.00
2018-10-01T18:19:32.994Z,9.10
2018-10-01T18:22:01.414Z,9.10
2018-10-01T18:24:29.862Z,9.10
2018-10-01T18:26:58.306Z,9.00
2018-10-01T18:29:26.760Z,9.00
2018-10-01T18:31:55.216Z,9.00
2018-10-01T18:34:23.652Z,8.80
2018-10-01T18:36:52.093Z,8.80
2018-10-01T18:39:24.073Z,8.70
2018-10-01T18:41:52.595Z,8.50
2018-10-01T18:44:21.099Z,8.50
2018-10-01T18:46:49.568Z,8.30
2018-10-01T18:49:18.102Z,8.20
2018-10-01T18:51:46.542Z,8.10
2018-10-01T18:54:15.126Z,8.00
2018-10-01T18:56:43.599Z,7.90
2018-10-01T18:59:12.267Z,7.70
2018-10-01T19:01:40.959Z,7.60
2018-10-01T19:04:09.410Z,7.40
2018-10-01T19:06:37.918Z,7.30
2018-10-01T19:09:09.030Z,7.30
2018-10-01T19:11:37.537Z,7.20
2018-10-01T19:14:06.017Z,7.30
2018-10-01T19:16:34.487Z,7.10
2018-10-01T19:19:02.930Z,7.00
2018-10-01T19:21:31.351Z,6.90
2018-10-01T19:23:59.931Z,6.90
2018-10-01T19:26:28.747Z,6.90
2018-10-01T19:28:57.244Z,6.80
2018-10-01T19:31:25.813Z,6.70
2018-10-01T19:33:54.399Z,6.70
2018-10-01T19:36:22.843Z,6.70
2018-10-01T19:38:51.278Z,6.70
2018-10-01T19:41:19.714Z,6.60
2018-10-01T19:43:48.165Z,6.60
2018-10-01T19:46:16.626Z,6.50
2018-10-01T19:48:45.050Z,6.50
2018-10-01T19:51:13.515Z,6.60
2018-10-01T19:53:42.032Z,6.70
2018-10-01T19:56:10.434Z,6.80
2018-10-01T19:58:38.866Z,6.80
2018-10-01T20:01:07.346Z,6.80
2018-10-01T20:03:35.799Z,6.80
2018-10-01T20:06:04.329Z,6.80
2018-10-01T20:08:32.761Z,6.80
2018-10-01T20:11:01.232Z,6.70
2018-10-01T20:13:29.626Z,6.70
2018-10-01T20:15:58.101Z,6.60
2018-10-01T20:18:26.494Z,6.60
2018-10-01T20:20:54.997Z,6.60
2018-10-01T20:23:23.418Z,6.60
2018-10-01T20:25:51.903Z,6.60
2018-10-01T20:28:20.461Z,6.60
2018-10-01T20:30:48.790Z,6.60
2018-10-01T20:33:17.218Z,6.60
2018-10-01T20:35:45.656Z,6.60
2018-10-01T20:38:14.098Z,6.60
2018-10-01T20:40:42.531Z,6.60
2018-10-01T20:43:11.004Z,6.50
2018-10-01T20:45:39.501Z,6.50
2018-10-01T20:48:07.886Z,6.50
2018-10-01T20:50:36.325Z,6.40
2018-10-01T20:53:04.804Z,6.40
2018-10-01T20:55:33.196Z,6.30
2018-10-01T20:58:01.583Z,6.30
2018-10-01T21:00:30.022Z,6.30
2018-10-01T21:02:58.427Z,6.20
2018-10-01T21:05:26.859Z,6.20
2018-10-01T21:07:55.283Z,6.10
2018-10-01T21:10:23.712Z,6.10
2018-10-01T21:12:52.113Z,6.00
2018-10-01T21:15:20.566Z,6.00
2018-10-01T21:17:48.986Z,6.00
2018-10-01T21:20:17.458Z,6.00
2018-10-01T21:22:45.889Z,5.90
2018-10-01T21:25:14.309Z,5.80
2018-10-01T21:27:42.770Z,5.80
2018-10-01T21:30:11.207Z,5.80
2018-10-01T21:32:39.649Z,5.80
2018-10-01T21:35:08.093Z,5.80
2018-10-01T21:37:36.559Z,5.90
2018-10-01T21:40:06.478Z,5.80
2018-10-01T21:42:34.957Z,5.90
2018-10-01T21:45:03.649Z,5.90
2018-10-01T21:47:32.642Z,5.90
2018-10-01T21:50:01.144Z,5.80
2018-10-01T21:52:29.908Z,5.70
2018-10-01T21:54:58.689Z,5.70
2018-10-01T21:57:27.206Z,5.70
2018-10-01T21:59:55.675Z,5.60
2018-10-01T22:02:24.150Z,5.60
2018-10-01T22:04:52.614Z,5.50
2018-10-01T22:07:21.067Z,5.50
2018-10-01T22:09:49.970Z,5.50
2018-10-01T22:12:18.419Z,5.40
2018-10-01T22:14:46.927Z,5.50
2018-10-01T22:17:15.390Z,5.50
2018-10-01T22:19:43.834Z,5.50
2018-10-01T22:22:12.266Z,5.50
2018-10-01T22:24:40.702Z,5.50
2018-10-01T22:27:09.149Z,5.40
2018-10-01T22:29:37.590Z,5.30
2018-10-01T22:32:06.087Z,5.30
2018-10-01T22:34:34.533Z,5.20
2018-10-01T22:37:03.016Z,5.10
2018-10-01T22:39:31.467Z,5.00
2018-10-01T22:41:59.923Z,5.00
2018-10-01T22:44:28.365Z,4.90
2018-10-01T22:46:56.858Z,4.90
2018-10-01T22:49:25.397Z,4.90
2018-10-01T22:51:53.814Z,4.90
2018-10-01T22:54:22.255Z,4.90
2018-10-01T22:56:50.712Z,4.90
2018-10-01T22:59:19.201Z,4.90
2018-10-01T23:01:47.695Z,4.80
2018-10-01T23:04:16.123Z,4.70
2018-10-01T23:06:44.558Z,4.80
2018-10-01T23:09:13.018Z,4.70
2018-10-01T23:11:41.460Z,4.70
2018-10-01T23:14:09.981Z,4.70
2018-10-01T23:16:38.442Z,4.70
2018-10-01T23:19:06.965Z,4.70
2018-10-01T23:21:35.445Z,4.70
2018-10-01T23:24:03.935Z,4.70
2018-10-01T23:26:32.421Z,4.70
2018-10-01T23:29:00.870Z,4.60
2018-10-01T23:31:29.300Z,4.50
2018-10-01T23:33:57.774Z,4.40
2018-10-01T23:36:26.235Z,4.30
2018-10-01T23:38:54.699Z,4.30
2018-10-01T23:41:23.166Z,4.30
2018-10-01T23:43:51.633Z,4.20
2018-10-01T23:46:20.091Z,4.20
2018-10-01T23:48:48.577Z,4.10
2018-10-01T23:51:17.049Z,4.00
2018-10-01T23:53:45.526Z,4.00
2018-10-01T23:56:13.979Z,4.00
2018-10-01T23:58:42.437Z,4.10
